createdAt,value
2019-01-25T00:01:15.615Z,-1.19
2019-01-25T00:05:20.318Z,-1.20
2019-01-25T00:09:25.010Z,-1.28
2019-01-25T00:13:29.710Z,-1.40
2019-01-25T00:17:34.396Z,-1.37
2019-01-25T00:21:39.086Z,-1.30
2019-01-25T00:25:43.786Z,-1.24
2019-01-25T00:29:48.483Z,-1.25
2019-01-25T00:33:53.182Z,-1.20
2019-01-25T00:37:57.870Z,-1.24
2019-01-25T00:42:02.566Z,-1.23
2019-01-25T00:46:07.260Z,-1.26
2019-01-25T00:50:19.889Z,-1.27
2019-01-25T00:54:24.588Z,-1.18
2019-01-25T00:58:29.272Z,-1.17
2019-01-25T01:02:33.970Z,-1.14
2019-01-25T01:06:38.668Z,-1.14
2019-01-25T01:10:43.372Z,-1.15
2019-01-25T01:14:48.055Z,-1.11
2019-01-25T01:18:52.748Z,-1.14
2019-01-25T01:22:57.451Z,-1.22
2019-01-25T01:27:02.153Z,-1.25
2019-01-25T01:31:06.851Z,-1.27
2019-01-25T01:35:11.540Z,-1.33
2019-01-25T01:39:16.239Z,-1.37
2019-01-25T01:43:20.938Z,-1.33
2019-01-25T01:47:25.633Z,-1.22
2019-01-25T01:51:30.330Z,-1.20
2019-01-25T01:55:35.022Z,-1.19
2019-01-25T01:59:39.724Z,-1.15
2019-01-25T02:03:44.419Z,-1.09
2019-01-25T02:07:49.120Z,-1.08
2019-01-25T02:11:53.820Z,-1.14
2019-01-25T02:15:58.509Z,-1.19
2019-01-25T02:20:04.282Z,-1.18
2019-01-25T02:24:08.986Z,-1.07
2019-01-25T02:28:13.680Z,-0.97
2019-01-25T02:32:18.560Z,-1.04
2019-01-25T02:36:23.260Z,-1.12
2019-01-25T02:40:27.954Z,-1.17
2019-01-25T02:44:32.651Z,-1.11
2019-01-25T02:48:37.344Z,-1.11
2019-01-25T02:52:42.046Z,-1.14
2019-01-25T02:56:46.732Z,-1.16
2019-01-25T03:00:51.430Z,-1.15
2019-01-25T03:04:56.129Z,-1.27
2019-01-25T03:09:00.821Z,-1.31
2019-01-25T03:13:06.580Z,-1.26
2019-01-25T03:17:11.279Z,-1.17
2019-01-25T03:21:15.977Z,-1.19
2019-01-25T03:25:22.815Z,-1.19
2019-01-25T03:29:27.510Z,-1.17
2019-01-25T03:33:32.238Z,-1.19
2019-01-25T03:37:36.896Z,-1.18
2019-01-25T03:41:41.592Z,-1.13
2019-01-25T03:45:46.298Z,-1.10
2019-01-25T03:49:51.002Z,-1.08
2019-01-25T03:53:55.690Z,-1.07
2019-01-25T03:58:00.392Z,-1.08
2019-01-25T04:02:05.871Z,-1.10
2019-01-25T04:06:10.574Z,-1.29
2019-01-25T04:10:23.716Z,-1.30
2019-01-25T04:14:28.397Z,-1.25
2019-01-25T04:18:34.066Z,-1.17
2019-01-25T04:22:38.766Z,-1.15
2019-01-25T04:26:43.461Z,-1.07
2019-01-25T04:30:48.162Z,-1.08
2019-01-25T04:34:52.854Z,-1.09
2019-01-25T04:38:57.553Z,-1.08
2019-01-25T04:43:02.262Z,-1.07
2019-01-25T04:47:06.954Z,-1.33
2019-01-25T04:51:11.644Z,-1.54
2019-01-25T04:55:18.779Z,-1.46
2019-01-25T04:59:26.572Z,-1.28
2019-01-25T05:03:31.445Z,-1.18
2019-01-25T05:07:36.147Z,-1.10
2019-01-25T05:11:40.838Z,-1.15
2019-01-25T05:15:45.540Z,-1.09
2019-01-25T05:19:50.233Z,-1.02
2019-01-25T05:23:54.932Z,-1.05
2019-01-25T05:28:14.093Z,-1.01
2019-01-25T05:32:18.763Z,-1.00
2019-01-25T05:36:23.461Z,-0.88
2019-01-25T05:40:28.152Z,-0.83
2019-01-25T05:44:32.856Z,-0.84
2019-01-25T05:48:37.568Z,-0.85
2019-01-25T05:52:43.298Z,-0.89
2019-01-25T05:56:48.007Z,-1.09
2019-01-25T06:00:52.692Z,-1.12
2019-01-25T06:04:57.398Z,-1.08
2019-01-25T06:09:02.097Z,-1.04
2019-01-25T06:13:07.870Z,-1.10
2019-01-25T06:17:12.599Z,-1.12
2019-01-25T06:21:17.302Z,-1.08
2019-01-25T06:25:22.014Z,-1.05
2019-01-25T06:29:28.981Z,-1.09
2019-01-25T06:33:33.667Z,-1.15
2019-01-25T06:37:38.373Z,-1.24
2019-01-25T06:41:44.192Z,-1.31
2019-01-25T06:45:50.670Z,-1.34
2019-01-25T06:49:55.365Z,-1.23
2019-01-25T06:54:00.057Z,-1.20
2019-01-25T06:58:12.725Z,-1.02
2019-01-25T07:02:17.423Z,-1.02
2019-01-25T07:06:22.116Z,-1.01
2019-01-25T07:10:26.828Z,-1.07
2019-01-25T07:14:31.505Z,-1.08
2019-01-25T07:18:36.206Z,-1.20
2019-01-25T07:22:40.911Z,-1.15
2019-01-25T07:26:45.616Z,-1.22
2019-01-25T07:30:50.334Z,-1.15
2019-01-25T07:34:55.014Z,-1.08
2019-01-25T07:38:59.716Z,-1.00
2019-01-25T07:43:04.413Z,-0.86
2019-01-25T07:47:09.115Z,-0.72
2019-01-25T07:51:13.833Z,-0.65
2019-01-25T07:55:18.533Z,-0.64
2019-01-25T07:59:23.248Z,-0.59
2019-01-25T08:03:27.909Z,-0.53
2019-01-25T08:07:32.625Z,-0.53
2019-01-25T08:11:37.312Z,-0.42
2019-01-25T08:15:42.014Z,-0.36
2019-01-25T08:19:46.765Z,-0.30
2019-01-25T08:23:51.405Z,-0.40
2019-01-25T08:27:56.111Z,-0.55
2019-01-25T08:32:00.844Z,-0.60
2019-01-25T08:36:05.563Z,-0.49
2019-01-25T08:40:14.788Z,-0.27
2019-01-25T08:44:19.482Z,-0.16
2019-01-25T08:48:25.251Z,-0.12
2019-01-25T08:52:29.956Z,-0.09
2019-01-25T08:56:34.823Z,-0.02
2019-01-25T09:00:39.622Z,0.02
2019-01-25T09:04:44.309Z,0.03
2019-01-25T09:08:49.002Z,0.08
2019-01-25T09:12:53.683Z,0.10
2019-01-25T09:16:58.375Z,0.16
2019-01-25T09:21:03.068Z,0.20
2019-01-25T09:25:08.894Z,0.23
2019-01-25T09:29:14.653Z,0.24
2019-01-25T09:33:19.335Z,0.27
2019-01-25T09:37:24.034Z,0.34
2019-01-25T09:41:28.733Z,0.55
2019-01-25T09:45:33.419Z,0.67
2019-01-25T09:49:38.116Z,0.72
2019-01-25T09:53:42.793Z,0.82
2019-01-25T09:57:47.733Z,0.83
2019-01-25T10:01:52.422Z,0.80
2019-01-25T10:05:57.116Z,0.83
2019-01-25T10:10:01.796Z,0.91
2019-01-25T10:14:06.491Z,0.94
2019-01-25T10:18:11.186Z,0.99
2019-01-25T10:22:15.880Z,0.97
2019-01-25T10:26:20.572Z,1.13
2019-01-25T10:30:26.901Z,1.22
2019-01-25T10:34:31.601Z,1.29
2019-01-25T10:38:36.307Z,1.30
2019-01-25T10:42:45.638Z,1.36
2019-01-25T10:46:47.394Z,1.47
2019-01-25T10:50:52.090Z,1.56
2019-01-25T10:54:56.775Z,1.73
2019-01-25T10:59:01.473Z,1.72
2019-01-25T11:03:06.164Z,1.82
2019-01-25T11:07:10.882Z,1.98
2019-01-25T11:11:15.569Z,2.11
2019-01-25T11:15:22.392Z,2.31
2019-01-25T11:19:28.054Z,2.47
2019-01-25T11:23:32.751Z,2.54
2019-01-25T11:27:37.441Z,2.49
2019-01-25T11:31:42.129Z,2.53
2019-01-25T11:35:46.823Z,2.65
2019-01-25T11:39:51.519Z,2.72
2019-01-25T11:43:56.217Z,2.68
2019-01-25T11:48:00.913Z,2.78
2019-01-25T11:52:05.603Z,2.82
2019-01-25T11:56:10.291Z,2.96
2019-01-25T12:00:23.271Z,3.05
2019-01-25T12:04:27.964Z,3.16
2019-01-25T12:08:32.663Z,3.00
2019-01-25T12:12:37.370Z,3.00
2019-01-25T12:16:42.048Z,3.01
2019-01-25T12:20:46.807Z,2.98
2019-01-25T12:24:51.453Z,2.93
2019-01-25T12:28:56.151Z,3.00
2019-01-25T12:33:00.838Z,3.04
2019-01-25T12:37:05.525Z,3.10
2019-01-25T12:41:10.221Z,3.21
2019-01-25T12:45:24.318Z,3.29
2019-01-25T12:49:29.014Z,3.19
2019-01-25T12:53:34.086Z,3.19
2019-01-25T12:57:38.766Z,3.19
2019-01-25T13:01:43.466Z,3.23
2019-01-25T13:05:48.233Z,3.33
2019-01-25T13:09:52.922Z,3.33
2019-01-25T13:13:57.881Z,3.40
2019-01-25T13:18:02.563Z,3.53
2019-01-25T13:22:07.263Z,3.56
2019-01-25T13:26:11.955Z,3.61
2019-01-25T13:30:28.820Z,3.55
2019-01-25T13:34:33.523Z,3.60
2019-01-25T13:38:38.193Z,3.63
2019-01-25T13:42:42.888Z,3.61
2019-01-25T13:46:47.588Z,3.63
2019-01-25T13:50:52.606Z,3.57
2019-01-25T13:54:57.297Z,3.63
2019-01-25T13:59:01.994Z,3.70
2019-01-25T14:03:06.691Z,3.89
2019-01-25T14:07:11.389Z,4.03
2019-01-25T14:11:16.087Z,4.05
2019-01-25T14:15:20.768Z,3.90
2019-01-25T14:19:25.527Z,3.76
2019-01-25T14:23:30.158Z,3.68
2019-01-25T14:27:34.852Z,3.55
2019-01-25T14:31:39.539Z,3.53
2019-01-25T14:35:44.228Z,3.59
2019-01-25T14:39:48.919Z,3.56
2019-01-25T14:43:54.696Z,3.52
2019-01-25T14:48:00.503Z,3.43
2019-01-25T14:52:05.737Z,3.37
2019-01-25T14:56:10.438Z,3.25
2019-01-25T15:00:15.760Z,3.03
2019-01-25T15:04:20.453Z,2.81
2019-01-25T15:08:25.141Z,2.75
2019-01-25T15:12:29.841Z,2.68
2019-01-25T15:16:34.518Z,2.61
2019-01-25T15:20:39.208Z,2.58
2019-01-25T15:24:43.927Z,2.53
2019-01-25T15:28:49.476Z,2.55
2019-01-25T15:32:54.179Z,2.56
2019-01-25T15:36:58.873Z,2.58
2019-01-25T15:41:03.564Z,2.51
2019-01-25T15:45:11.196Z,2.38
2019-01-25T15:49:15.902Z,2.33
2019-01-25T15:53:20.595Z,2.20
2019-01-25T15:57:25.288Z,2.05
2019-01-25T16:01:29.971Z,1.93
2019-01-25T16:05:34.662Z,1.72
2019-01-25T16:09:39.357Z,1.61
2019-01-25T16:13:45.922Z,1.59
2019-01-25T16:17:50.614Z,1.58
2019-01-25T16:21:55.313Z,1.59
2019-01-25T16:26:00.011Z,1.64
2019-01-25T16:30:13.828Z,1.72
2019-01-25T16:34:18.525Z,1.75
2019-01-25T16:38:23.221Z,1.77
2019-01-25T16:42:27.899Z,1.80
2019-01-25T16:46:32.599Z,1.85
2019-01-25T16:50:37.292Z,1.89
2019-01-25T16:54:41.989Z,1.91
2019-01-25T16:58:46.676Z,1.95
2019-01-25T17:02:51.360Z,2.03
2019-01-25T17:06:56.053Z,2.03
2019-01-25T17:11:00.745Z,2.05
2019-01-25T17:15:08.987Z,2.10
2019-01-25T17:19:13.674Z,2.12
2019-01-25T17:23:18.364Z,2.18
2019-01-25T17:27:23.056Z,2.15
2019-01-25T17:31:27.749Z,2.16
2019-01-25T17:35:32.786Z,2.19
2019-01-25T17:39:37.468Z,2.22
2019-01-25T17:43:42.161Z,2.21
2019-01-25T17:47:46.852Z,2.14
2019-01-25T17:51:51.555Z,2.13
2019-01-25T17:55:56.231Z,2.11
2019-01-25T18:00:01.983Z,2.13
2019-01-25T18:04:06.674Z,2.16
2019-01-25T18:08:11.367Z,2.21
2019-01-25T18:12:16.123Z,2.36
2019-01-25T18:16:20.823Z,2.44
2019-01-25T18:20:25.513Z,2.41
2019-01-25T18:24:30.200Z,2.36
2019-01-25T18:28:39.209Z,2.29
2019-01-25T18:32:43.904Z,2.27
2019-01-25T18:36:48.595Z,2.29
2019-01-25T18:40:53.289Z,2.31
2019-01-25T18:44:57.973Z,2.33
2019-01-25T18:49:02.707Z,2.33
2019-01-25T18:53:07.397Z,2.31
2019-01-25T18:57:12.096Z,2.38
2019-01-25T19:01:16.798Z,2.37
2019-01-25T19:05:21.481Z,2.33
2019-01-25T19:09:26.176Z,2.32
2019-01-25T19:13:30.873Z,2.28
2019-01-25T19:17:35.565Z,2.22
2019-01-25T19:21:41.218Z,2.16
2019-01-25T19:25:45.906Z,2.11
2019-01-25T19:29:50.595Z,2.05
2019-01-25T19:33:55.289Z,2.03
2019-01-25T19:37:59.980Z,1.98
2019-01-25T19:42:04.667Z,1.84
2019-01-25T19:46:09.355Z,1.82
2019-01-25T19:50:16.754Z,1.77
2019-01-25T19:54:21.443Z,1.70
2019-01-25T19:58:27.145Z,1.69
2019-01-25T20:02:31.915Z,1.74
2019-01-25T20:06:36.611Z,1.72
2019-01-25T20:10:41.302Z,1.68
2019-01-25T20:14:45.993Z,1.67
2019-01-25T20:18:50.681Z,1.62
2019-01-25T20:22:55.364Z,1.57
2019-01-25T20:27:00.060Z,1.51
2019-01-25T20:31:04.760Z,1.46
2019-01-25T20:35:12.402Z,1.63
2019-01-25T20:39:17.094Z,1.86
2019-01-25T20:43:21.782Z,1.76
2019-01-25T20:47:26.475Z,1.67
2019-01-25T20:51:31.167Z,1.62
2019-01-25T20:55:35.865Z,1.55
2019-01-25T20:59:40.548Z,1.56
2019-01-25T21:03:45.236Z,1.64
2019-01-25T21:07:49.929Z,1.68
2019-01-25T21:11:54.626Z,1.66
2019-01-25T21:15:59.315Z,1.62
2019-01-25T21:20:06.901Z,1.55
2019-01-25T21:24:11.666Z,1.51
2019-01-25T21:28:16.360Z,1.55
2019-01-25T21:32:21.040Z,1.55
2019-01-25T21:36:25.722Z,1.59
2019-01-25T21:40:32.154Z,1.64
2019-01-25T21:44:36.844Z,1.63
2019-01-25T21:48:41.545Z,1.63
2019-01-25T21:52:46.228Z,1.67
2019-01-25T21:56:50.916Z,1.71
2019-01-25T22:00:55.610Z,1.67
2019-01-25T22:05:00.296Z,1.67
2019-01-25T22:09:06.736Z,1.69
2019-01-25T22:13:11.435Z,1.70
2019-01-25T22:17:16.289Z,1.73
2019-01-25T22:21:20.980Z,1.74
2019-01-25T22:25:25.669Z,1.79
2019-01-25T22:29:30.351Z,1.81
2019-01-25T22:33:35.035Z,1.91
2019-01-25T22:37:39.711Z,1.94
2019-01-25T22:41:44.403Z,1.95
2019-01-25T22:45:49.090Z,2.00
2019-01-25T22:49:53.763Z,1.97
2019-01-25T22:53:58.582Z,2.01
2019-01-25T22:58:03.205Z,2.06
2019-01-25T23:02:07.887Z,2.11
2019-01-25T23:06:35.212Z,2.18
2019-01-25T23:10:39.891Z,2.27
2019-01-25T23:14:44.569Z,2.34
2019-01-25T23:18:49.233Z,2.37
2019-01-25T23:22:53.920Z,2.40
2019-01-25T23:26:58.612Z,2.47
2019-01-25T23:31:04.268Z,2.49
2019-01-25T23:35:08.947Z,2.50
2019-01-25T23:39:13.624Z,2.49
2019-01-25T23:43:18.323Z,2.50
2019-01-25T23:47:22.998Z,2.59
2019-01-25T23:51:27.678Z,2.68
2019-01-25T23:55:32.374Z,2.69
2019-01-25T23:59:38.015Z,2.74
